createdAt,value
2023-05-13T00:02:15.261Z,54.01
2023-05-13T00:04:43.594Z,53.86
2023-05-13T00:07:11.886Z,53.85
2023-05-13T00:09:40.143Z,54.06
2023-05-13T00:12:08.422Z,54.15
2023-05-13T00:14:37.417Z,54.09
2023-05-13T00:17:05.786Z,54.28
2023-05-13T00:19:33.864Z,54.36
2023-05-13T00:22:02.129Z,54.47
2023-05-13T00:24:30.299Z,54.52
2023-05-13T00:26:58.989Z,54.61
2023-05-13T00:29:27.280Z,54.60
2023-05-13T00:31:55.613Z,54.88
2023-05-13T00:34:24.533Z,54.87
2023-05-13T00:36:53.110Z,55.04
2023-05-13T00:39:21.288Z,54.88
2023-05-13T00:41:49.451Z,54.97
2023-05-13T00:44:17.935Z,54.95
2023-05-13T00:46:46.416Z,55.05
2023-05-13T00:49:14.482Z,55.42
2023-05-13T00:51:42.654Z,55.50
2023-05-13T00:54:10.843Z,55.44
2023-05-13T00:56:39.310Z,55.36
2023-05-13T00:59:07.373Z,55.42
2023-05-13T01:01:49.057Z,55.54
2023-05-13T01:04:44.173Z,55.71
2023-05-13T01:07:14.910Z,55.83
2023-05-13T01:10:06.357Z,56.11
2023-05-13T01:12:41.043Z,56.34
2023-05-13T01:15:14.214Z,56.35
2023-05-13T01:17:49.840Z,56.30
2023-05-13T01:20:22.601Z,56.66
2023-05-13T01:22:51.549Z,56.79
2023-05-13T01:25:20.639Z,56.73
2023-05-13T01:27:48.995Z,56.91
2023-05-13T01:30:17.817Z,56.91
2023-05-13T01:32:46.422Z,56.91
2023-05-13T01:35:18.354Z,56.84
2023-05-13T01:37:48.055Z,56.86
2023-05-13T01:40:31.158Z,57.29
2023-05-13T01:43:02.831Z,57.25
2023-05-13T01:45:32.437Z,57.22
2023-05-13T01:48:00.914Z,57.12
2023-05-13T01:50:35.128Z,57.72
2023-05-13T01:53:03.716Z,57.72
2023-05-13T01:55:32.398Z,58.15
2023-05-13T01:58:01.801Z,58.03
2023-05-13T02:00:30.689Z,58.37
2023-05-13T02:02:59.047Z,58.36
2023-05-13T02:05:27.337Z,58.46
2023-05-13T02:07:56.122Z,58.49
2023-05-13T02:10:24.454Z,58.51
2023-05-13T02:12:52.877Z,58.56
2023-05-13T02:15:21.050Z,58.53
2023-05-13T02:17:49.252Z,58.53
2023-05-13T02:20:17.600Z,58.86
2023-05-13T02:22:46.512Z,58.82
2023-05-13T02:25:14.665Z,58.67
2023-05-13T02:27:42.834Z,58.63
2023-05-13T02:30:11.737Z,58.67
2023-05-13T02:32:42.945Z,59.03
2023-05-13T02:35:11.800Z,59.21
2023-05-13T02:37:40.442Z,59.53
2023-05-13T02:40:11.163Z,59.55
2023-05-13T02:42:39.345Z,59.25
2023-05-13T02:45:09.759Z,58.95
2023-05-13T02:47:40.130Z,58.90
2023-05-13T02:50:10.310Z,59.03
2023-05-13T02:52:40.436Z,58.97
2023-05-13T02:55:09.777Z,59.11
2023-05-13T02:57:38.419Z,59.06
2023-05-13T03:00:07.445Z,59.13
2023-05-13T03:02:36.573Z,59.53
2023-05-13T03:05:05.388Z,59.48
2023-05-13T03:07:33.564Z,59.88
2023-05-13T03:10:01.835Z,59.68
2023-05-13T03:12:30.620Z,59.73
2023-05-13T03:14:59.426Z,59.41
2023-05-13T03:17:31.030Z,59.43
2023-05-13T03:19:59.443Z,59.47
2023-05-13T03:22:27.919Z,59.67
2023-05-13T03:24:57.429Z,59.87
2023-05-13T03:27:27.540Z,60.03
2023-05-13T03:29:55.918Z,60.22
2023-05-13T03:32:30.736Z,59.94
2023-05-13T03:35:01.275Z,59.99
2023-05-13T03:37:30.169Z,60.20
2023-05-13T03:39:58.655Z,60.51
2023-05-13T03:42:28.041Z,60.46
2023-05-13T03:44:59.795Z,60.59
2023-05-13T03:47:28.446Z,60.65
2023-05-13T03:49:59.832Z,60.99
2023-05-13T03:52:28.103Z,61.19
2023-05-13T03:54:56.336Z,61.41
2023-05-13T03:57:24.554Z,61.55
2023-05-13T03:59:52.833Z,61.54
2023-05-13T04:02:22.068Z,61.60
2023-05-13T04:04:50.615Z,61.89
2023-05-13T04:07:20.827Z,62.07
2023-05-13T04:09:49.006Z,62.37
2023-05-13T04:12:18.430Z,62.51
2023-05-13T04:14:46.990Z,62.63
2023-05-13T04:17:15.437Z,62.98
2023-05-13T04:19:43.736Z,63.13
2023-05-13T04:22:12.024Z,63.25
2023-05-13T04:24:40.190Z,63.47
2023-05-13T04:27:08.262Z,63.80
2023-05-13T04:29:36.527Z,63.82
2023-05-13T04:32:05.230Z,64.18
2023-05-13T04:34:33.697Z,64.29
2023-05-13T04:37:01.860Z,64.11
2023-05-13T04:39:30.676Z,63.84
2023-05-13T04:41:59.742Z,64.27
2023-05-13T04:44:27.919Z,63.90
2023-05-13T04:46:56.014Z,63.54
2023-05-13T04:49:24.258Z,63.46
2023-05-13T04:51:54.202Z,63.49
2023-05-13T04:54:22.891Z,63.32
2023-05-13T04:56:51.440Z,63.22
2023-05-13T04:59:19.768Z,63.05
2023-05-13T05:01:47.959Z,62.95
2023-05-13T05:04:16.403Z,62.77
2023-05-13T05:06:45.976Z,62.49
2023-05-13T05:09:14.553Z,62.23
2023-05-13T05:11:42.831Z,62.53
2023-05-13T05:14:11.104Z,62.28
2023-05-13T05:16:39.152Z,62.25
2023-05-13T05:19:07.358Z,62.10
2023-05-13T05:21:37.586Z,62.15
2023-05-13T05:24:07.457Z,62.16
2023-05-13T05:26:35.856Z,62.05
2023-05-13T05:29:04.027Z,61.67
2023-05-13T05:31:32.263Z,61.42
2023-05-13T05:34:03.447Z,61.10
2023-05-13T05:36:31.728Z,61.44
2023-05-13T05:39:00.204Z,60.98
2023-05-13T05:41:33.697Z,60.71
2023-05-13T05:44:01.970Z,60.41
2023-05-13T05:46:32.758Z,60.26
2023-05-13T05:49:03.823Z,60.21
2023-05-13T05:51:34.882Z,60.02
2023-05-13T05:54:04.439Z,59.51
2023-05-13T05:56:32.977Z,59.10
2023-05-13T05:59:01.436Z,58.92
2023-05-13T06:01:36.741Z,58.73
2023-05-13T06:04:06.857Z,58.54
2023-05-13T06:06:35.831Z,58.10
2023-05-13T06:09:04.173Z,58.24
2023-05-13T06:11:32.652Z,58.07
2023-05-13T06:14:01.030Z,57.76
2023-05-13T06:16:29.432Z,57.22
2023-05-13T06:18:57.878Z,57.49
2023-05-13T06:21:26.780Z,57.24
2023-05-13T06:23:54.950Z,56.96
2023-05-13T06:26:23.134Z,56.55
2023-05-13T06:28:51.404Z,56.15
2023-05-13T06:31:19.713Z,55.70
2023-05-13T06:33:48.258Z,55.58
2023-05-13T06:36:16.837Z,55.98
2023-05-13T06:38:45.003Z,55.70
2023-05-13T06:41:13.893Z,55.32
2023-05-13T06:43:42.188Z,55.51
2023-05-13T06:46:17.199Z,55.34
2023-05-13T06:48:46.293Z,55.04
2023-05-13T06:51:14.472Z,55.10
2023-05-13T06:53:42.644Z,54.87
2023-05-13T06:56:10.925Z,54.44
2023-05-13T06:58:39.190Z,54.25
2023-05-13T07:01:07.711Z,54.20
2023-05-13T07:03:36.617Z,53.72
2023-05-13T07:06:04.933Z,53.25
2023-05-13T07:08:33.003Z,53.23
2023-05-13T07:11:01.380Z,52.97
2023-05-13T07:13:30.375Z,52.88
2023-05-13T07:15:58.541Z,53.06
2023-05-13T07:18:26.957Z,53.05
2023-05-13T07:20:56.524Z,52.56
2023-05-13T07:23:24.800Z,52.64
2023-05-13T07:25:53.176Z,52.23
2023-05-13T07:28:21.346Z,51.82
2023-05-13T07:30:49.865Z,51.88
2023-05-13T07:33:18.002Z,51.37
2023-05-13T07:35:46.278Z,51.01
2023-05-13T07:38:14.759Z,50.69
2023-05-13T07:40:42.926Z,50.47
2023-05-13T07:43:11.916Z,49.93
2023-05-13T07:45:40.399Z,49.72
2023-05-13T07:48:10.253Z,49.93
2023-05-13T07:50:38.594Z,49.76
2023-05-13T07:53:06.871Z,49.63
2023-05-13T07:55:35.033Z,49.51
2023-05-13T07:58:03.416Z,49.32
2023-05-13T08:00:31.706Z,49.28
2023-05-13T08:02:59.968Z,48.90
2023-05-13T08:05:28.445Z,48.76
2023-05-13T08:07:56.820Z,48.64
2023-05-13T08:10:24.992Z,48.28
2023-05-13T08:12:57.900Z,48.02
2023-05-13T08:15:27.584Z,47.90
2023-05-13T08:17:55.888Z,48.07
2023-05-13T08:20:30.331Z,47.96
2023-05-13T08:22:58.784Z,47.76
2023-05-13T08:25:27.036Z,47.54
2023-05-13T08:27:55.608Z,47.26
2023-05-13T08:30:23.702Z,47.06
2023-05-13T08:32:51.997Z,46.90
2023-05-13T08:35:20.728Z,46.42
2023-05-13T08:37:49.251Z,46.56
2023-05-13T08:40:17.594Z,46.20
2023-05-13T08:42:50.262Z,46.71
2023-05-13T08:45:22.049Z,46.53
2023-05-13T08:48:10.748Z,46.42
2023-05-13T08:50:39.279Z,46.26
2023-05-13T08:53:07.967Z,45.84
2023-05-13T08:55:36.127Z,45.69
2023-05-13T08:58:04.397Z,45.40
2023-05-13T09:00:34.726Z,45.33
2023-05-13T09:03:03.205Z,45.08
2023-05-13T09:05:32.174Z,45.15
2023-05-13T09:08:07.110Z,44.75
2023-05-13T09:10:36.114Z,44.52
2023-05-13T09:13:05.106Z,44.06
2023-05-13T09:15:33.538Z,44.01
2023-05-13T09:18:04.590Z,44.01
2023-05-13T09:20:33.538Z,43.17
2023-05-13T09:23:07.875Z,43.16
2023-05-13T09:25:37.535Z,43.20
2023-05-13T09:28:08.064Z,43.24
2023-05-13T09:30:44.513Z,43.31
2023-05-13T09:33:22.793Z,43.29
2023-05-13T09:35:53.049Z,43.19
2023-05-13T09:38:22.460Z,42.69
2023-05-13T09:40:54.987Z,42.70
2023-05-13T09:43:28.473Z,42.59
2023-05-13T09:45:58.545Z,42.22
2023-05-13T09:48:28.570Z,41.76
2023-05-13T09:50:58.525Z,42.08
2023-05-13T09:53:27.687Z,42.07
2023-05-13T09:55:57.697Z,41.60
2023-05-13T09:58:31.149Z,41.57
2023-05-13T10:01:00.038Z,41.38
2023-05-13T10:03:29.740Z,41.10
2023-05-13T10:06:01.307Z,41.03
2023-05-13T10:08:31.564Z,40.93
2023-05-13T10:10:59.935Z,40.53
2023-05-13T10:13:29.950Z,39.97
2023-05-13T10:15:58.942Z,39.27
2023-05-13T10:18:29.307Z,38.75
2023-05-13T10:20:58.069Z,38.61
2023-05-13T10:23:26.734Z,38.10
2023-05-13T10:25:58.286Z,37.70
2023-05-13T10:28:28.288Z,37.22
2023-05-13T10:30:57.440Z,36.54
2023-05-13T10:33:27.315Z,36.30
2023-05-13T10:36:11.660Z,35.82
2023-05-13T10:39:10.448Z,35.26
2023-05-13T10:41:57.151Z,35.22
2023-05-13T10:44:25.321Z,35.28
2023-05-13T10:46:56.670Z,35.20
2023-05-13T10:49:26.480Z,34.73
2023-05-13T10:52:04.461Z,34.35
2023-05-13T10:54:38.925Z,34.12
2023-05-13T10:57:07.589Z,34.03
2023-05-13T10:59:37.382Z,33.62
2023-05-13T11:02:24.679Z,33.59
2023-05-13T11:05:00.573Z,33.20
2023-05-13T11:07:29.472Z,33.01
2023-05-13T11:09:57.633Z,33.04
2023-05-13T11:12:25.934Z,32.77
2023-05-13T11:14:57.056Z,32.04
2023-05-13T11:17:26.216Z,31.57
2023-05-13T11:19:54.428Z,31.25
2023-05-13T11:22:26.485Z,31.25
2023-05-13T11:25:05.850Z,31.24
2023-05-13T11:27:39.341Z,31.13
2023-05-13T11:30:22.162Z,30.94
2023-05-13T11:32:56.866Z,30.58
2023-05-13T11:35:30.254Z,30.01
2023-05-13T11:38:00.410Z,29.67
2023-05-13T11:40:36.530Z,29.10
2023-05-13T11:43:08.080Z,28.95
2023-05-13T11:45:39.443Z,29.03
2023-05-13T11:48:22.362Z,29.06
2023-05-13T11:50:52.162Z,28.98
2023-05-13T11:53:22.711Z,28.51
2023-05-13T11:55:51.897Z,28.88
2023-05-13T11:58:21.732Z,28.50
2023-05-13T12:00:49.962Z,28.53
2023-05-13T12:03:18.152Z,28.40
2023-05-13T12:05:46.610Z,28.78
2023-05-13T12:08:15.027Z,29.05
2023-05-13T12:10:44.474Z,29.17
2023-05-13T12:13:13.182Z,29.39
2023-05-13T12:15:41.899Z,29.33
2023-05-13T12:18:10.427Z,29.39
2023-05-13T12:20:38.845Z,29.54
2023-05-13T12:23:07.004Z,29.61
2023-05-13T12:25:38.882Z,29.49
2023-05-13T12:28:17.345Z,29.64
2023-05-13T12:30:51.902Z,29.80
2023-05-13T12:33:22.154Z,30.18
2023-05-13T12:35:53.061Z,30.51
2023-05-13T12:38:24.147Z,30.64
2023-05-13T12:40:53.472Z,30.52
2023-05-13T12:43:21.773Z,30.49
2023-05-13T12:45:56.772Z,30.85
2023-05-13T12:48:26.213Z,30.62
2023-05-13T12:50:54.471Z,30.73
2023-05-13T12:53:22.659Z,30.89
2023-05-13T12:55:51.228Z,30.59
2023-05-13T12:58:19.397Z,30.57
2023-05-13T13:00:47.772Z,30.66
2023-05-13T13:03:16.392Z,30.42
2023-05-13T13:05:44.735Z,30.46
2023-05-13T13:08:12.912Z,30.71
2023-05-13T13:10:41.020Z,30.86
2023-05-13T13:13:09.354Z,30.86
2023-05-13T13:15:38.144Z,30.80
2023-05-13T13:18:06.606Z,31.09
2023-05-13T13:20:34.999Z,31.17
2023-05-13T13:23:03.276Z,31.28
2023-05-13T13:25:33.188Z,31.28
2023-05-13T13:28:01.800Z,31.69
2023-05-13T13:30:30.765Z,32.08
2023-05-13T13:32:59.127Z,32.30
2023-05-13T13:35:27.520Z,31.91
2023-05-13T13:37:56.197Z,32.12
2023-05-13T13:40:24.588Z,32.17
2023-05-13T13:42:52.849Z,32.02
2023-05-13T13:45:24.306Z,32.04
2023-05-13T13:47:52.523Z,32.03
2023-05-13T13:50:21.006Z,32.01
2023-05-13T13:52:52.406Z,32.03
2023-05-13T13:55:21.701Z,31.59
2023-05-13T13:57:51.026Z,31.23
2023-05-13T14:00:19.697Z,30.90
2023-05-13T14:02:48.666Z,30.96
2023-05-13T14:05:17.357Z,30.94
2023-05-13T14:07:46.453Z,31.18
2023-05-13T14:10:14.625Z,31.36
2023-05-13T14:12:42.716Z,31.06
2023-05-13T14:15:11.582Z,31.18
2023-05-13T14:17:39.671Z,30.92
2023-05-13T14:20:10.351Z,31.13
2023-05-13T14:22:38.665Z,31.24
2023-05-13T14:25:07.135Z,31.13
2023-05-13T14:27:36.617Z,31.15
2023-05-13T14:30:06.667Z,31.05
2023-05-13T14:32:34.887Z,31.01
2023-05-13T14:35:03.142Z,31.04
2023-05-13T14:37:31.277Z,30.73
2023-05-13T14:39:59.450Z,30.80
2023-05-13T14:42:27.725Z,30.67
2023-05-13T14:44:55.794Z,30.49
2023-05-13T14:47:24.274Z,30.21
2023-05-13T14:49:52.445Z,29.83
2023-05-13T14:52:20.713Z,29.82
2023-05-13T14:54:48.995Z,29.71
2023-05-13T14:57:17.069Z,29.08
2023-05-13T14:59:45.335Z,28.71
2023-05-13T15:02:14.100Z,28.35
2023-05-13T15:04:42.498Z,28.12
2023-05-13T15:07:11.186Z,28.03
2023-05-13T15:09:39.357Z,27.97
2023-05-13T15:12:08.242Z,28.26
2023-05-13T15:14:36.414Z,28.39
2023-05-13T15:17:06.109Z,28.21
2023-05-13T15:19:34.398Z,28.19
2023-05-13T15:22:02.578Z,28.30
2023-05-13T15:24:31.052Z,28.42
2023-05-13T15:26:59.223Z,28.39
2023-05-13T15:29:27.703Z,28.30
2023-05-13T15:31:55.872Z,27.71
2023-05-13T15:34:24.152Z,27.69
2023-05-13T15:36:53.145Z,27.77
2023-05-13T15:39:21.316Z,27.88
2023-05-13T15:41:49.587Z,27.47
2023-05-13T15:44:17.973Z,27.58
2023-05-13T15:46:49.505Z,27.51
2023-05-13T15:49:18.210Z,27.42
2023-05-13T15:51:46.689Z,27.21
2023-05-13T15:54:14.854Z,27.07
2023-05-13T15:56:43.027Z,27.07
2023-05-13T15:59:11.198Z,26.97
2023-05-13T16:01:41.857Z,26.95
2023-05-13T16:04:10.213Z,26.38
2023-05-13T16:06:38.482Z,26.20
2023-05-13T16:09:06.966Z,26.35
2023-05-13T16:11:35.133Z,26.48
2023-05-13T16:14:04.839Z,26.31
2023-05-13T16:16:33.091Z,26.72
2023-05-13T16:19:03.784Z,27.05
2023-05-13T16:21:32.124Z,27.45
2023-05-13T16:24:00.199Z,27.80
2023-05-13T16:26:28.468Z,27.98
2023-05-13T16:28:56.638Z,28.49
2023-05-13T16:31:24.945Z,28.97
2023-05-13T16:33:53.495Z,29.08
2023-05-13T16:36:22.079Z,29.25
2023-05-13T16:38:50.265Z,29.61
2023-05-13T16:41:18.425Z,29.77
2023-05-13T16:43:46.491Z,29.95
2023-05-13T16:46:16.702Z,30.02
2023-05-13T16:48:45.637Z,30.35
2023-05-13T16:51:13.875Z,30.55
2023-05-13T16:53:42.049Z,30.63
2023-05-13T16:56:10.240Z,30.53
2023-05-13T16:58:38.903Z,30.68
2023-05-13T17:01:07.182Z,30.81
2023-05-13T17:03:35.422Z,30.99
2023-05-13T17:06:03.831Z,31.02
2023-05-13T17:08:32.002Z,31.18
2023-05-13T17:11:00.277Z,31.31
2023-05-13T17:13:28.552Z,31.44
2023-05-13T17:15:56.725Z,31.49
2023-05-13T17:18:26.607Z,31.62
2023-05-13T17:20:55.173Z,31.88
2023-05-13T17:23:23.407Z,32.07
2023-05-13T17:25:51.670Z,32.07
2023-05-13T17:28:20.046Z,32.31
2023-05-13T17:30:48.457Z,32.42
2023-05-13T17:33:16.799Z,32.55
2023-05-13T17:35:44.976Z,32.72
2023-05-13T17:38:13.245Z,32.83
2023-05-13T17:40:41.522Z,33.14
2023-05-13T17:43:09.800Z,33.26
2023-05-13T17:45:37.982Z,33.64
2023-05-13T17:48:06.691Z,33.62
2023-05-13T17:50:34.933Z,33.70
2023-05-13T17:53:03.429Z,34.02
2023-05-13T17:55:31.683Z,34.33
2023-05-13T17:58:00.056Z,34.66
2023-05-13T18:00:28.660Z,34.71
2023-05-13T18:02:56.953Z,35.03
2023-05-13T18:05:25.249Z,35.15
2023-05-13T18:07:53.570Z,35.13
2023-05-13T18:10:22.228Z,35.43
2023-05-13T18:12:51.966Z,35.59
2023-05-13T18:15:20.662Z,36.01
2023-05-13T18:17:49.744Z,36.42
2023-05-13T18:20:18.423Z,36.79
2023-05-13T18:22:46.794Z,37.15
2023-05-13T18:25:15.081Z,37.87
2023-05-13T18:27:43.243Z,38.65
2023-05-13T18:30:12.252Z,38.98
2023-05-13T18:32:40.541Z,39.44
2023-05-13T18:35:09.194Z,39.72
2023-05-13T18:37:37.368Z,39.75
2023-05-13T18:40:06.366Z,40.41
2023-05-13T18:42:34.532Z,41.29
2023-05-13T18:45:02.708Z,42.07
2023-05-13T18:47:30.992Z,42.87
2023-05-13T18:49:59.259Z,43.18
2023-05-13T18:52:27.423Z,43.69
2023-05-13T18:54:55.809Z,43.95
2023-05-13T18:57:24.395Z,44.33
2023-05-13T18:59:52.987Z,44.99
2023-05-13T19:02:21.567Z,45.35
2023-05-13T19:04:50.125Z,45.59
2023-05-13T19:07:18.408Z,45.28
2023-05-13T19:09:48.111Z,45.11
2023-05-13T19:12:16.496Z,45.71
2023-05-13T19:14:44.866Z,46.24
2023-05-13T19:17:13.126Z,46.86
2023-05-13T19:19:42.337Z,47.42
2023-05-13T19:22:10.402Z,47.55
2023-05-13T19:24:38.476Z,47.77
2023-05-13T19:27:07.366Z,48.03
2023-05-13T19:29:36.088Z,48.18
2023-05-13T19:32:04.331Z,48.35
2023-05-13T19:34:32.706Z,48.70
2023-05-13T19:37:00.981Z,49.10
2023-05-13T19:39:29.149Z,49.64
2023-05-13T19:41:57.320Z,49.79
2023-05-13T19:44:28.083Z,50.29
2023-05-13T19:46:57.494Z,50.53
2023-05-13T19:49:25.831Z,50.93
2023-05-13T19:51:54.428Z,51.29
2023-05-13T19:54:22.760Z,51.78
2023-05-13T19:56:50.961Z,51.84
2023-05-13T19:59:19.439Z,52.16
2023-05-13T20:01:47.656Z,52.57
2023-05-13T20:04:16.606Z,52.98
2023-05-13T20:06:44.790Z,53.44
2023-05-13T20:09:13.157Z,53.76
2023-05-13T20:11:41.328Z,54.14
2023-05-13T20:14:09.701Z,54.05
2023-05-13T20:16:38.392Z,54.58
2023-05-13T20:19:06.619Z,54.53
2023-05-13T20:21:34.847Z,55.02
2023-05-13T20:24:03.117Z,55.32
2023-05-13T20:26:34.769Z,55.63
2023-05-13T20:29:03.867Z,56.01
2023-05-13T20:31:32.069Z,56.38
2023-05-13T20:34:00.514Z,56.62
2023-05-13T20:36:28.789Z,57.03
2023-05-13T20:38:57.072Z,57.17
2023-05-13T20:41:25.235Z,57.50
2023-05-13T20:43:53.408Z,57.92
2023-05-13T20:46:21.513Z,58.01
2023-05-13T20:48:49.851Z,58.44
2023-05-13T20:51:18.030Z,58.91
2023-05-13T20:53:47.538Z,59.16
2023-05-13T20:56:15.702Z,59.41
2023-05-13T20:58:43.976Z,59.62
2023-05-13T21:01:12.932Z,60.07
2023-05-13T21:03:41.224Z,60.16
2023-05-13T21:06:09.520Z,60.43
2023-05-13T21:08:40.172Z,60.54
2023-05-13T21:11:08.423Z,60.80
2023-05-13T21:13:36.699Z,60.91
2023-05-13T21:16:05.923Z,61.09
2023-05-13T21:18:34.371Z,61.19
2023-05-13T21:21:08.655Z,61.47
2023-05-13T21:23:37.268Z,61.60
2023-05-13T21:26:11.908Z,61.75
2023-05-13T21:28:40.473Z,62.00
2023-05-13T21:31:08.773Z,62.01
2023-05-13T21:33:37.021Z,62.16
2023-05-13T21:36:05.924Z,62.21
2023-05-13T21:38:34.085Z,62.46
2023-05-13T21:41:02.460Z,62.68
2023-05-13T21:43:30.736Z,62.91
2023-05-13T21:45:58.910Z,63.11
2023-05-13T21:48:27.101Z,63.12
2023-05-13T21:50:55.250Z,63.25
2023-05-13T21:53:24.146Z,63.46
2023-05-13T21:55:53.744Z,63.45
2023-05-13T21:58:23.373Z,63.78
2023-05-13T22:00:52.907Z,64.04
2023-05-13T22:03:21.300Z,64.22
2023-05-13T22:05:49.717Z,64.48
2023-05-13T22:08:17.882Z,64.65
2023-05-13T22:10:46.157Z,64.65
2023-05-13T22:13:14.640Z,64.90
2023-05-13T22:15:42.837Z,65.18
2023-05-13T22:18:11.165Z,65.21
2023-05-13T22:20:39.459Z,65.38
2023-05-13T22:23:07.655Z,65.42
2023-05-13T22:25:35.807Z,65.47
2023-05-13T22:28:04.183Z,65.57
2023-05-13T22:30:32.462Z,65.81
2023-05-13T22:33:00.929Z,65.69
2023-05-13T22:35:29.560Z,66.07
2023-05-13T22:37:57.867Z,65.73
2023-05-13T22:40:26.163Z,66.15
2023-05-13T22:42:54.563Z,66.15
2023-05-13T22:45:22.708Z,66.40
2023-05-13T22:47:51.230Z,66.53
2023-05-13T22:50:19.796Z,66.86
2023-05-13T22:52:48.164Z,66.99
2023-05-13T22:55:16.337Z,67.10
2023-05-13T22:57:44.617Z,67.29
2023-05-13T23:00:13.502Z,67.05
2023-05-13T23:02:41.710Z,67.18
2023-05-13T23:05:10.184Z,67.28
2023-05-13T23:07:38.423Z,67.04
2023-05-13T23:10:07.195Z,67.24
2023-05-13T23:12:35.378Z,67.45
2023-05-13T23:15:04.372Z,67.41
2023-05-13T23:17:32.565Z,67.60
2023-05-13T23:20:01.129Z,67.72
2023-05-13T23:22:29.400Z,67.55
2023-05-13T23:24:57.675Z,67.77
2023-05-13T23:27:25.753Z,68.01
2023-05-13T23:29:53.811Z,67.92
2023-05-13T23:32:22.022Z,67.97
2023-05-13T23:34:50.905Z,68.34
2023-05-13T23:37:19.561Z,68.73
2023-05-13T23:39:47.834Z,68.19
2023-05-13T23:42:16.867Z,68.83
2023-05-13T23:44:44.994Z,68.86
2023-05-13T23:47:13.783Z,68.91
2023-05-13T23:49:41.958Z,69.02
2023-05-13T23:52:10.238Z,68.95
2023-05-13T23:54:38.512Z,69.43
2023-05-13T23:57:06.782Z,69.26
2023-05-13T23:59:35.068Z,69.40
